Time;durP1;ratioP1;P1;durP2;ratioP2;P2;SDS_P1;SDS_P2;PMS_P1;PMS_P2;Temp;Humidity;BMP_temperature;BMP_pressure;BME280_temperature;BME280_humidity;BME280_pressure;Samples;Min_cycle;Max_cycle;Signal;HPM_P1;HPM_P2
2022/03/01 00:01:49;;;;;;;6.23;3.57;;;;;;;0.65;68.35;100459.50;8353684;28;20365;-74
2022/03/01 00:05:51;;;;;;;3.97;2.83;;;;;;;0.57;69.45;100471.00;8332188;28;20147;-74
2022/03/01 00:09:52;;;;;;;5.40;3.33;;;;;;;0.40;70.20;100469.22;8343357;28;20360;-74
2022/03/01 00:13:54;;;;;;;6.90;4.43;;;;;;;0.27;71.10;100480.47;8354655;28;20055;-74
2022/03/01 00:17:56;;;;;;;6.78;4.38;;;;;;;0.19;71.39;100480.06;8347348;28;20103;-74
2022/03/01 00:21:58;;;;;;;5.47;3.87;;;;;;;0.09;71.64;100476.91;8359936;28;20072;-74
2022/03/01 00:25:59;;;;;;;7.88;4.25;;;;;;;0.03;72.11;100482.56;8356425;28;20048;-74
2022/03/01 00:30:01;;;;;;;5.70;4.47;;;;;;;-0.03;72.53;100485.66;8359001;28;20044;-74
2022/03/01 00:34:03;;;;;;;8.30;4.83;;;;;;;-0.08;72.60;100489.63;8677841;22;20051;-73
2022/03/01 00:38:04;;;;;;;8.93;4.67;;;;;;;-0.20;72.81;100498.25;8351210;28;20478;-73
2022/03/01 00:42:06;;;;;;;9.07;5.03;;;;;;;-0.22;72.84;100494.75;8370534;28;20075;-72
2022/03/01 00:46:08;;;;;;;7.67;4.57;;;;;;;-0.25;73.03;100490.34;8348926;28;20062;-72
2022/03/01 00:50:09;;;;;;;6.50;4.53;;;;;;;-0.32;72.72;100498.47;8367591;28;20428;-74
2022/03/01 00:54:11;;;;;;;8.17;5.03;;;;;;;-0.36;73.06;100493.97;8347704;28;20080;-74
2022/03/01 00:58:14;;;;;;;6.18;3.88;;;;;;;-0.42;73.46;100489.41;8377823;28;20059;-75
2022/03/01 01:02:15;;;;;;;12.80;4.70;;;;;;;-0.51;73.33;100486.34;8366157;28;20060;-72
2022/03/01 01:06:17;;;;;;;7.17;3.40;;;;;;;-0.61;74.18;100489.16;8355643;28;20043;-73
2022/03/01 01:10:20;;;;;;;9.43;5.37;;;;;;;-0.68;74.59;100482.81;8368101;28;20520;-72
2022/03/01 01:14:21;;;;;;;;;;;;;;;-0.69;74.26;100472.53;8381851;28;20514;-73
2022/03/01 01:18:23;;;;;;;9.57;4.70;;;;;;;-0.75;74.38;100465.41;8351393;28;19974;-73
2022/03/01 01:22:39;;;;;;;10.47;5.07;;;;;;;-0.79;75.12;100466.03;8384763;28;20048;-73
2022/03/01 01:26:41;;;;;;;7.07;4.27;;;;;;;-0.82;75.10;100457.31;8377785;28;20727;-73
2022/03/01 01:30:43;;;;;;;8.17;4.30;;;;;;;-0.87;74.41;100449.41;8378516;28;20082;-73
2022/03/01 01:34:44;;;;;;;8.30;5.13;;;;;;;-0.98;75.07;100453.88;8381437;28;20445;-73
2022/03/01 01:38:46;;;;;;;9.23;4.63;;;;;;;-1.05;74.66;100446.69;8367724;28;20542;-73
2022/03/01 01:42:48;;;;;;;7.60;3.90;;;;;;;-1.08;75.30;100443.03;8376649;28;20147;-75
2022/03/01 01:46:52;;;;;;;9.10;4.47;;;;;;;-1.08;76.12;100440.50;8364900;28;20056;-73
2022/03/01 01:50:53;;;;;;;6.03;4.13;;;;;;;-1.10;75.80;100445.50;8383123;28;20135;-73
2022/03/01 01:54:55;;;;;;;8.63;3.90;;;;;;;-1.12;75.76;100449.63;8386387;28;20052;-73
2022/03/01 01:58:57;;;;;;;7.90;4.23;;;;;;;-1.14;75.78;100438.47;8392967;28;20079;-73
2022/03/01 02:02:59;;;;;;;8.07;4.37;;;;;;;-1.21;76.19;100451.66;8387497;28;20456;-73
2022/03/01 02:07:01;;;;;;;9.30;5.60;;;;;;;-1.30;76.61;100451.97;8373947;28;20076;-73
2022/03/01 02:11:03;;;;;;;4.23;3.07;;;;;;;-1.34;77.39;100449.16;8382960;28;20363;-73
2022/03/01 02:15:05;;;;;;;4.72;2.80;;;;;;;-1.31;77.06;100446.78;8390876;28;20333;-73
2022/03/01 02:19:11;;;;;;;5.27;3.90;;;;;;;-1.35;77.45;100440.63;8389133;28;20174;-72
2022/03/01 02:23:13;;;;;;;6.73;3.57;;;;;;;-1.37;77.85;100442.22;8376729;28;20595;-72
2022/03/01 02:27:14;;;;;;;5.70;3.57;;;;;;;-1.39;77.92;100443.81;8386172;28;20506;-73
2022/03/01 02:31:16;;;;;;;6.93;3.80;;;;;;;-1.42;77.61;100440.19;8382743;28;20052;-74
2022/03/01 02:35:18;;;;;;;6.60;3.57;;;;;;;-1.39;77.79;100440.38;8390186;28;20045;-74
2022/03/01 02:39:20;;;;;;;5.03;3.78;;;;;;;-1.42;77.30;100442.75;8387814;28;20083;-73
2022/03/01 02:43:21;;;;;;;8.87;4.50;;;;;;;-1.39;77.58;100445.47;8385598;28;20428;-74
2022/03/01 02:47:23;;;;;;;7.30;4.20;;;;;;;-1.37;77.13;100444.78;8375520;28;20064;-73
2022/03/01 02:51:24;;;;;;;7.20;4.63;;;;;;;-1.35;77.86;100448.28;8385144;28;20132;-73
2022/03/01 02:55:26;;;;;;;8.10;4.70;;;;;;;-1.33;77.57;100456.00;8391764;28;20083;-74
2022/03/01 02:59:28;;;;;;;6.37;4.47;;;;;;;-1.32;78.07;100445.91;8381169;28;20050;-74
2022/03/01 03:03:30;;;;;;;6.30;3.92;;;;;;;-1.33;78.09;100456.88;8381848;28;20087;-73
2022/03/01 03:07:32;;;;;;;4.23;3.43;;;;;;;-1.34;78.28;100455.13;8395384;28;20076;-74
2022/03/01 03:11:33;;;;;;;4.47;3.60;;;;;;;-1.42;78.03;100453.81;8367425;28;20053;-73
2022/03/01 03:15:34;;;;;;;5.90;3.57;;;;;;;-1.43;78.08;100451.19;8380289;28;20287;-74
2022/03/01 03:19:36;;;;;;;6.20;3.60;;;;;;;-1.42;78.71;100443.63;8385108;28;20052;-74
2022/03/01 03:23:38;;;;;;;6.13;3.53;;;;;;;-1.50;78.08;100452.44;8379106;28;20147;-73
2022/03/01 03:27:40;;;;;;;7.72;3.67;;;;;;;-1.53;79.19;100450.59;8379714;28;20049;-74
2022/03/01 03:31:42;;;;;;;6.28;4.30;;;;;;;-1.54;79.78;100450.50;8375835;28;20139;-74
2022/03/01 03:35:44;;;;;;;5.50;4.07;;;;;;;-1.57;79.49;100452.88;8366815;28;20049;-74
2022/03/01 03:39:45;;;;;;;4.70;3.83;;;;;;;-1.69;79.05;100450.47;8353164;28;20424;-74
2022/03/01 03:43:47;;;;;;;7.97;4.50;;;;;;;-1.68;79.20;100451.34;8336660;28;20052;-74
2022/03/01 03:47:48;;;;;;;6.47;4.30;;;;;;;-1.70;79.08;100460.56;8333380;28;20081;-73
2022/03/01 03:51:50;;;;;;;7.53;4.97;;;;;;;-1.72;79.05;100460.47;8330219;28;20077;-74
2022/03/01 03:55:51;;;;;;;6.53;4.23;;;;;;;-1.72;79.58;100460.47;8331146;28;20063;-74
2022/03/01 03:59:53;;;;;;;5.57;3.87;;;;;;;-1.74;79.62;100453.53;8338628;28;20090;-74
2022/03/01 04:03:54;;;;;;;5.30;4.20;;;;;;;-1.79;78.92;100450.69;8349504;28;20066;-74
2022/03/01 04:07:55;;;;;;;6.33;4.53;;;;;;;-1.79;78.85;100447.28;8344210;28;20063;-74
2022/03/01 04:11:57;;;;;;;10.77;4.40;;;;;;;-1.82;78.62;100437.75;8341025;28;20447;-74
2022/03/01 04:15:58;;;;;;;7.20;4.20;;;;;;;-1.88;79.54;100430.63;8339257;28;20085;-74
2022/03/01 04:20:00;;;;;;;6.17;4.27;;;;;;;-1.94;79.15;100439.56;8329916;28;20053;-74
2022/03/01 04:24:03;;;;;;;6.72;3.90;;;;;;;-2.03;79.57;100434.78;8331404;28;20079;-74
2022/03/01 04:28:05;;;;;;;6.40;3.97;;;;;;;-2.01;80.41;100437.41;8349459;28;20045;-74
2022/03/01 04:32:07;;;;;;;8.87;4.50;;;;;;;-1.99;79.58;100434.16;8329758;28;20450;-74
2022/03/01 04:36:08;;;;;;;8.10;4.57;;;;;;;-1.97;79.34;100442.81;8345968;28;20396;-75
2022/03/01 04:40:12;;;;;;;7.47;4.33;;;;;;;-1.94;79.07;100437.03;8362553;28;20087;-75
2022/03/01 04:44:14;;;;;;;8.40;4.83;;;;;;;-1.98;80.17;100442.69;8373262;28;20086;-74
2022/03/01 04:48:16;;;;;;;;;;;;;;;-1.94;80.59;100450.63;8378408;28;20337;-75
2022/03/01 04:52:18;;;;;;;7.03;4.80;;;;;;;-1.92;79.85;100449.06;8378214;28;20458;-75
2022/03/01 04:56:20;;;;;;;6.27;3.63;;;;;;;-1.82;79.41;100460.66;8372993;28;20120;-76
2022/03/01 05:00:21;;;;;;;8.83;4.87;;;;;;;-1.69;77.78;100459.75;8373406;28;20049;-75
2022/03/01 05:04:23;;;;;;;7.30;4.73;;;;;;;-1.54;76.71;100464.13;8378195;28;20312;-75
2022/03/01 05:08:26;;;;;;;8.10;4.67;;;;;;;-1.49;76.78;100458.44;8360107;28;20135;-75
2022/03/01 05:12:27;;;;;;;7.23;5.07;;;;;;;-1.49;77.36;100471.16;8361764;28;20080;-75
2022/03/01 05:16:29;;;;;;;9.90;5.30;;;;;;;-1.43;78.07;100482.63;8361827;28;20064;-75
2022/03/01 05:20:30;;;;;;;7.20;5.10;;;;;;;-1.43;78.62;100476.66;8361960;28;20159;-76
2022/03/01 05:24:32;;;;;;;7.37;3.97;;;;;;;-1.50;78.58;100466.84;8364894;28;20044;-75
2022/03/01 05:28:34;;;;;;;8.77;5.13;;;;;;;-1.64;78.38;100461.78;8382343;28;20103;-75
2022/03/01 05:32:37;;;;;;;10.67;4.23;;;;;;;-1.69;78.84;100450.47;8379069;28;20063;-76
2022/03/01 05:36:38;;;;;;;8.27;4.37;;;;;;;-1.76;77.64;100448.34;8358058;28;20088;-75
2022/03/01 05:40:40;;;;;;;7.87;4.53;;;;;;;-1.90;78.62;100462.75;8350829;28;20055;-75
2022/03/01 05:44:41;;;;;;;8.03;3.93;;;;;;;-1.93;78.50;100441.31;8335533;28;20584;-75
2022/03/01 05:48:43;;;;;;;7.77;4.50;;;;;;;-1.98;79.58;100443.56;8331600;28;20417;-75
2022/03/01 05:52:46;;;;;;;10.70;4.53;;;;;;;-1.99;79.41;100446.91;8355849;28;20075;-76
2022/03/01 05:56:48;;;;;;;8.47;4.80;;;;;;;-2.04;79.29;100447.41;8347124;28;20148;-75
2022/03/01 06:00:50;;;;;;;9.30;6.30;;;;;;;-2.06;79.62;100442.22;8345320;28;20059;-75
2022/03/01 06:04:52;;;;;;;8.47;5.00;;;;;;;-2.03;79.01;100444.94;8355186;28;20052;-75
2022/03/01 06:08:53;;;;;;;7.32;4.68;;;;;;;-2.02;78.00;100438.19;8352374;28;20057;-75
2022/03/01 06:12:56;;;;;;;7.87;4.50;;;;;;;-1.92;77.50;100427.81;8353579;28;20445;-74
2022/03/01 06:16:57;;;;;;;7.68;4.38;;;;;;;-1.72;75.47;100434.13;8318371;28;20120;-74
2022/03/01 06:21:01;;;;;;;8.57;4.13;;;;;;;-1.44;75.09;100441.75;8358271;28;20058;-76
2022/03/01 06:25:04;;;;;;;5.67;4.03;;;;;;;-1.35;73.20;100453.38;8335458;28;20434;-74
2022/03/01 06:29:06;;;;;;;8.93;3.80;;;;;;;-1.23;72.73;100461.75;8350151;28;20074;-74
2022/03/01 06:33:07;;;;;;;5.63;3.65;;;;;;;-1.20;71.66;100453.41;8330919;28;20061;-73
2022/03/01 06:37:13;;;;;;;6.40;3.83;;;;;;;-1.06;72.10;100451.69;8392274;28;20062;-75
2022/03/01 06:41:15;;;;;;;5.23;3.67;;;;;;;-0.89;70.83;100466.28;8388544;28;20056;-75
2022/03/01 06:45:17;;;;;;;5.67;3.27;;;;;;;-0.73;70.54;100475.69;8387778;28;20053;-75
2022/03/01 06:49:18;;;;;;;8.57;3.70;;;;;;;-0.62;70.13;100479.75;8396274;28;20062;-75
2022/03/01 06:53:20;;;;;;;6.10;3.40;;;;;;;-0.48;69.47;100485.63;8384545;28;20056;-72
2022/03/01 06:57:21;;;;;;;6.07;3.80;;;;;;;-0.33;69.05;100494.16;8384018;28;20139;-73
2022/03/01 07:01:23;;;;;;;4.70;3.93;;;;;;;-0.17;68.45;100488.25;8380972;28;20143;-72
2022/03/01 07:05:25;;;;;;;6.80;4.70;;;;;;;-0.05;68.62;100494.00;8401906;28;20067;-73
2022/03/01 07:09:26;;;;;;;4.47;3.40;;;;;;;0.07;67.87;100487.03;8397832;28;20123;-77
2022/03/01 07:13:28;;;;;;;5.40;3.63;;;;;;;0.26;67.60;100481.25;8402379;28;20764;-75
2022/03/01 07:17:29;;;;;;;9.20;3.83;;;;;;;0.46;67.15;100472.97;8398933;28;20092;-75
2022/03/01 07:21:31;;;;;;;6.87;4.47;;;;;;;0.69;65.85;100479.28;8398612;28;20443;-74
2022/03/01 07:25:33;;;;;;;5.03;3.93;;;;;;;0.95;64.90;100473.00;8402556;28;20053;-74
2022/03/01 07:29:34;;;;;;;5.60;3.80;;;;;;;1.23;64.96;100477.81;8399393;28;20056;-74
2022/03/01 07:33:38;;;;;;;7.23;4.33;;;;;;;1.57;63.22;100482.03;8396558;28;20056;-74
2022/03/01 07:37:40;;;;;;;5.53;3.73;;;;;;;1.94;61.50;100471.88;8400777;28;20113;-73
2022/03/01 07:41:41;;;;;;;5.90;3.78;;;;;;;2.53;60.80;100479.78;8398791;28;20054;-73
2022/03/01 07:45:43;;;;;;;7.20;4.37;;;;;;;3.10;58.88;100479.69;8394207;28;20068;-72
2022/03/01 07:49:44;;;;;;;4.93;4.23;;;;;;;3.46;56.83;100478.69;8397490;28;20050;-72
2022/03/01 07:53:46;;;;;;;6.53;3.80;;;;;;;3.62;56.90;100478.50;8372332;28;20048;-73
2022/03/01 07:57:49;;;;;;;4.40;3.40;;;;;;;3.93;56.14;100478.00;8383368;28;20469;-73
2022/03/01 08:01:50;;;;;;;4.97;3.57;;;;;;;4.09;54.67;100464.06;8355311;28;20063;-73
2022/03/01 08:05:52;;;;;;;5.88;3.40;;;;;;;4.40;53.82;100472.97;8356108;28;20048;-72
2022/03/01 08:09:54;;;;;;;4.53;3.33;;;;;;;4.77;52.60;100476.06;8372397;28;20052;-72
2022/03/01 08:13:55;;;;;;;6.60;4.00;;;;;;;5.03;51.41;100471.00;8356874;28;20143;-72
2022/03/01 08:17:58;;;;;;;4.83;3.67;;;;;;;5.35;50.29;100479.78;8373840;28;20147;-72
2022/03/01 08:21:59;;;;;;;;;;;;;;;5.51;49.25;100484.63;8366978;28;20059;-71
2022/03/01 08:26:04;;;;;;;9.33;4.00;;;;;;;5.71;48.43;100477.56;8378356;28;19928;-71
2022/03/01 08:30:07;;;;;;;7.07;3.97;;;;;;;5.89;47.10;100482.44;8372268;28;20048;-73
2022/03/01 08:34:08;;;;;;;;;;;;;;;5.95;46.66;100465.50;8364435;28;20412;-71
2022/03/01 08:38:10;;;;;;;5.27;4.17;;;;;;;5.75;46.46;100469.13;8371317;28;20039;-71
2022/03/01 08:42:11;;;;;;;6.07;3.50;;;;;;;5.56;46.37;100464.19;8339642;28;20053;-71
2022/03/01 08:46:14;;;;;;;5.90;3.40;;;;;;;5.45;46.82;100469.00;8364526;28;21087;-71
2022/03/01 08:50:15;;;;;;;;;;;;;;;5.36;47.21;100468.66;8364660;28;20052;-71
2022/03/01 08:54:37;;;;;;;5.53;3.07;;;;;;;5.29;47.41;100477.91;8351906;28;19935;-71
2022/03/01 08:58:38;;;;;;;8.00;3.60;;;;;;;5.25;46.86;100486.34;8375108;28;20527;-71
2022/03/01 09:02:40;;;;;;;4.43;3.50;;;;;;;5.32;46.62;100490.88;8370444;28;20439;-71
2022/03/01 09:06:41;;;;;;;5.47;3.00;;;;;;;5.42;45.58;100489.50;8374373;28;20049;-71
2022/03/01 09:10:43;;;;;;;6.33;4.10;;;;;;;5.55;46.02;100481.34;8375613;28;20159;-73
2022/03/01 09:14:45;;;;;;;5.97;3.63;;;;;;;5.66;45.98;100479.13;8375576;28;20044;-73
2022/03/01 09:18:46;;;;;;;5.50;4.13;;;;;;;5.92;45.69;100486.00;8376627;28;20139;-74
2022/03/01 09:22:48;;;;;;;5.80;3.90;;;;;;;6.11;44.58;100484.91;8364703;28;20074;-72
2022/03/01 09:26:49;;;;;;;3.60;3.07;;;;;;;6.35;44.30;100480.50;8374315;28;20052;-74
2022/03/01 09:30:55;;;;;;;8.93;4.70;;;;;;;6.79;43.50;100483.47;8374898;28;20444;-74
2022/03/01 09:34:57;;;;;;;9.70;5.40;;;;;;;7.11;42.47;100481.78;8375596;28;20064;-74
2022/03/01 09:38:59;;;;;;;12.40;5.63;;;;;;;7.40;41.92;100473.94;8379428;28;20060;-74
2022/03/01 09:43:01;;;;;;;7.47;3.80;;;;;;;7.69;41.21;100477.25;8359449;28;20144;-74
2022/03/01 09:47:03;;;;;;;6.80;3.28;;;;;;;7.99;41.46;100474.53;8356346;28;20139;-74
2022/03/01 09:51:06;;;;;;;6.32;3.60;;;;;;;8.27;41.13;100471.75;8377298;28;20095;-74
2022/03/01 09:55:09;;;;;;;5.60;4.72;;;;;;;8.37;39.77;100465.06;8364573;28;20395;-73
2022/03/01 09:59:11;;;;;;;5.45;3.95;;;;;;;8.16;39.84;100461.13;8379869;28;20049;-73
2022/03/01 10:03:17;;;;;;;6.28;3.28;;;;;;;7.87;40.45;100457.88;8377289;28;20052;-72
2022/03/01 10:07:28;;;;;;;5.13;3.72;;;;;;;7.64;41.00;100464.22;8372061;28;20418;-71
2022/03/01 10:11:35;;;;;;;6.88;3.70;;;;;;;7.67;40.40;100456.53;8369599;28;20045;-72
2022/03/01 10:15:37;;;;;;;6.28;3.85;;;;;;;7.84;40.37;100456.94;8366533;28;20062;-71
2022/03/01 10:19:39;;;;;;;5.53;3.40;;;;;;;7.80;39.82;100471.50;8369731;28;20110;-72
2022/03/01 10:23:58;;;;;;;4.32;3.30;;;;;;;8.14;40.13;100469.72;8372719;28;20423;-74
2022/03/01 10:27:59;;;;;;;3.65;2.72;;;;;;;8.27;39.67;100463.97;8370133;28;20163;-72
2022/03/01 10:32:11;;;;;;;3.70;3.22;;;;;;;8.28;38.42;100460.56;8372072;28;20151;-72
2022/03/01 10:36:20;;;;;;;6.10;3.13;;;;;;;8.28;39.56;100455.38;8376998;28;20053;-72
2022/03/01 10:40:23;;;;;;;4.07;3.05;;;;;;;8.40;39.40;100460.81;8371434;28;20048;-72
2022/03/01 10:44:27;;;;;;;3.47;2.95;;;;;;;8.68;39.51;100466.59;8375782;28;20598;-72
2022/03/01 10:48:34;;;;;;;6.80;3.33;;;;;;;8.70;38.52;100470.09;8353194;28;20118;-74
2022/03/01 10:52:41;;;;;;;3.33;2.80;;;;;;;8.88;38.99;100457.50;8359454;28;20151;-72
2022/03/01 10:56:42;;;;;;;4.38;3.20;;;;;;;9.08;38.22;100463.06;8357669;28;20040;-74
2022/03/01 11:00:44;;;;;;;3.50;3.20;;;;;;;9.30;37.05;100482.47;8356217;28;20443;-74
2022/03/01 11:04:47;;;;;;;5.28;3.30;;;;;;;9.36;37.26;100480.88;8369947;28;20052;-74
2022/03/01 11:08:50;;;;;;;4.55;3.13;;;;;;;9.19;37.29;100469.34;8368790;28;20147;-73
2022/03/01 11:12:53;;;;;;;;;;;;;;;9.08;37.77;100463.06;8367932;28;20435;-72
2022/03/01 11:17:08;;;;;;;7.65;3.35;;;;;;;8.96;37.19;100444.69;8354859;28;19924;-74
2022/03/01 11:21:12;;;;;;;6.50;3.97;;;;;;;9.14;37.30;100457.13;8353934;28;20156;-72
2022/03/01 11:25:16;;;;;;;6.47;3.50;;;;;;;9.34;37.51;100448.00;8346540;28;20091;-74
2022/03/01 11:29:18;;;;;;;6.68;3.45;;;;;;;9.68;37.16;100432.13;8377818;28;20281;-73
2022/03/01 11:33:28;;;;;;;6.07;3.95;;;;;;;9.89;36.82;100418.66;8361335;28;20065;-74
2022/03/01 11:37:30;;;;;;;3.92;2.97;;;;;;;10.17;36.67;100409.50;8315190;28;20041;-72
2022/03/01 11:41:40;;;;;;;3.80;3.33;;;;;;;10.23;36.30;100403.56;8353142;28;20056;-73
2022/03/01 11:45:51;;;;;;;4.30;3.45;;;;;;;10.37;35.64;100386.44;8337991;28;20148;-72
2022/03/01 11:49:53;;;;;;;6.22;3.72;;;;;;;10.59;36.26;100384.97;8320799;28;20056;-72
2022/03/01 11:53:55;;;;;;;4.03;3.28;;;;;;;10.80;35.31;100371.38;8348379;28;20218;-72
2022/03/01 11:57:57;;;;;;;4.38;3.65;;;;;;;10.81;34.55;100375.72;8340776;28;20087;-73
2022/03/01 12:02:00;;;;;;;6.13;4.53;;;;;;;10.91;35.27;100361.94;8344572;28;20076;-74
2022/03/01 12:06:04;;;;;;;5.43;3.38;;;;;;;11.00;34.81;100364.63;8357131;28;20048;-75
2022/03/01 12:10:06;;;;;;;5.25;3.85;;;;;;;11.16;34.20;100358.72;8336062;28;20066;-74
2022/03/01 12:14:10;;;;;;;7.97;4.67;;;;;;;11.24;33.54;100358.78;8346658;28;20056;-74
2022/03/01 12:18:14;;;;;;;5.68;4.13;;;;;;;11.34;34.02;100357.13;8350621;28;20057;-74
2022/03/01 12:22:16;;;;;;;4.70;3.83;;;;;;;11.57;33.95;100346.91;8346603;28;20049;-74
2022/03/01 12:26:17;;;;;;;6.30;4.50;;;;;;;11.65;33.82;100345.19;8346867;28;20159;-72
2022/03/01 12:30:21;;;;;;;4.90;3.10;;;;;;;11.75;32.96;100342.69;8347248;28;20045;-74
2022/03/01 12:34:26;;;;;;;4.53;3.35;;;;;;;11.87;32.09;100354.94;8344373;28;20084;-74
2022/03/01 12:38:28;;;;;;;4.63;3.17;;;;;;;11.97;29.75;100341.09;8337365;28;20457;-75
2022/03/01 12:42:29;;;;;;;3.95;3.35;;;;;;;12.01;30.33;100341.97;8336538;28;20582;-74
2022/03/01 12:46:32;;;;;;;4.60;3.50;;;;;;;11.88;30.12;100333.25;8308145;28;20461;-75
2022/03/01 12:50:33;;;;;;;4.85;3.55;;;;;;;11.92;30.72;100323.72;8340268;28;20423;-74
2022/03/01 12:54:36;;;;;;;5.17;3.07;;;;;;;12.05;31.52;100320.34;8339350;28;20049;-74
2022/03/01 12:58:37;;;;;;;4.53;3.47;;;;;;;12.06;30.90;100312.53;8342806;28;20765;-75
2022/03/01 13:02:50;;;;;;;4.82;3.05;;;;;;;12.39;31.31;100319.59;8335536;28;20497;-76
2022/03/01 13:06:53;;;;;;;4.43;3.13;;;;;;;12.37;29.78;100325.63;8338371;28;20199;-73
2022/03/01 13:10:54;;;;;;;3.88;3.28;;;;;;;12.32;28.80;100314.34;8341735;28;20139;-72
2022/03/01 13:14:56;;;;;;;3.97;3.28;;;;;;;12.31;29.56;100315.22;8343352;28;20551;-73
2022/03/01 13:19:12;;;;;;;4.88;3.42;;;;;;;12.44;28.93;100310.91;8335654;28;20053;-73
2022/03/01 13:23:14;;;;;;;4.05;3.15;;;;;;;12.55;29.20;100304.84;8320907;28;20048;-73
2022/03/01 13:27:18;;;;;;;5.05;3.03;;;;;;;12.35;29.77;100306.53;8340463;28;20049;-74
2022/03/01 13:31:25;;;;;;;5.93;3.08;;;;;;;12.24;30.32;100297.84;8329171;28;20057;-75
2022/03/01 13:35:28;;;;;;;4.43;3.15;;;;;;;12.05;29.76;100294.31;8359276;28;20129;-73
2022/03/01 13:39:35;;;;;;;4.85;3.40;;;;;;;12.00;31.03;100291.66;8387798;28;20040;-73
2022/03/01 13:43:37;;;;;;;3.80;3.50;;;;;;;11.96;30.32;100289.91;8393549;28;20057;-73
2022/03/01 13:47:41;;;;;;;5.88;2.92;;;;;;;12.02;31.59;100291.66;8383372;28;20415;-72
2022/03/01 13:51:43;;;;;;;4.07;3.45;;;;;;;11.98;30.89;100288.19;8379118;28;20199;-72
2022/03/01 13:55:47;;;;;;;3.63;3.13;;;;;;;12.17;30.17;100283.03;8395395;28;20427;-72
2022/03/01 14:00:00;;;;;;;4.57;3.25;;;;;;;12.42;29.91;100297.03;8381163;28;20086;-73
2022/03/01 14:04:04;;;;;;;2.88;2.65;;;;;;;12.58;29.88;100294.47;8378749;28;20052;-72
2022/03/01 14:08:09;;;;;;;6.90;4.78;;;;;;;12.58;30.41;100289.25;8382120;28;20147;-72
2022/03/01 14:12:11;;;;;;;6.35;3.88;;;;;;;12.56;30.16;100296.16;8364456;28;20135;-73
2022/03/01 14:16:23;;;;;;;5.05;3.75;;;;;;;12.63;29.59;100297.06;8374372;28;20060;-73
2022/03/01 14:20:27;;;;;;;6.43;4.30;;;;;;;12.68;29.27;100290.13;8381488;28;20075;-72
2022/03/01 14:24:29;;;;;;;4.22;3.10;;;;;;;12.70;29.05;100286.66;8376055;28;20052;-72
2022/03/01 14:28:31;;;;;;;4.68;3.03;;;;;;;12.70;30.01;100291.00;8357864;28;20060;-72
2022/03/01 14:32:32;;;;;;;5.03;3.58;;;;;;;12.67;29.35;100281.44;8372511;28;20075;-72
2022/03/01 14:36:34;;;;;;;4.03;2.97;;;;;;;12.60;29.56;100276.22;8386185;28;20067;-72
2022/03/01 14:40:36;;;;;;;5.17;2.90;;;;;;;12.48;28.86;100260.56;8373217;28;20058;-72
2022/03/01 14:44:38;;;;;;;3.10;2.10;;;;;;;12.39;28.91;100257.09;8393040;28;20048;-73
2022/03/01 14:48:39;;;;;;;3.73;3.27;;;;;;;12.31;28.80;100243.16;8391394;28;20757;-73
2022/03/01 14:52:41;;;;;;;3.92;3.33;;;;;;;12.28;29.26;100242.28;8392895;28;20305;-73
2022/03/01 14:56:42;;;;;;;5.70;3.72;;;;;;;12.14;29.63;100236.19;8384888;28;20364;-72
2022/03/01 15:00:44;;;;;;;4.87;3.03;;;;;;;11.93;30.39;100232.66;8379966;28;20139;-72
2022/03/01 15:04:50;;;;;;;6.93;3.37;;;;;;;11.76;31.16;100218.66;8395239;28;20601;-72
2022/03/01 15:08:52;;;;;;;4.85;3.28;;;;;;;11.66;31.42;100224.69;8381089;28;20429;-72
2022/03/01 15:12:53;;;;;;;5.57;3.58;;;;;;;11.55;31.90;100218.56;8379855;28;20052;-72
2022/03/01 15:16:55;;;;;;;4.15;3.20;;;;;;;11.41;31.30;100215.91;8372962;28;20139;-72
2022/03/01 15:20:57;;;;;;;3.87;2.87;;;;;;;11.29;30.68;100210.63;8379201;28;20490;-72
2022/03/01 15:24:59;;;;;;;2.70;2.40;;;;;;;11.19;30.66;100220.97;8377453;28;20055;-72
2022/03/01 15:29:01;;;;;;;4.78;2.60;;;;;;;11.17;31.22;100227.03;8378231;28;20051;-73
2022/03/01 15:33:03;;;;;;;2.72;2.50;;;;;;;11.16;31.28;100225.28;8351795;28;20064;-72
2022/03/01 15:37:04;;;;;;;5.97;3.42;;;;;;;11.08;31.18;100229.53;8339216;28;20053;-72
2022/03/01 15:41:07;;;;;;;3.58;2.83;;;;;;;11.02;31.44;100219.13;8316061;28;20432;-72
2022/03/01 15:45:10;;;;;;;3.97;2.80;;;;;;;10.95;31.98;100223.41;8309978;28;20572;-72
2022/03/01 15:49:11;;;;;;;;;;;;;;;10.82;32.18;100208.59;8334720;28;20430;-72
2022/03/01 15:53:14;;;;;;;;;;;;;;;10.70;32.55;100211.06;8330518;28;20368;-72
2022/03/01 15:57:16;;;;;;;2.65;2.45;;;;;;;10.62;33.69;100207.56;8331186;28;19925;-72
2022/03/01 16:01:17;;;;;;;3.55;2.65;;;;;;;10.58;34.22;100202.31;8334776;28;20049;-71
2022/03/01 16:05:19;;;;;;;4.33;2.80;;;;;;;10.59;33.31;100200.59;8341399;28;20048;-71
2022/03/01 16:09:21;;;;;;;3.00;2.50;;;;;;;10.53;34.57;100208.31;8340550;28;20132;-71
2022/03/01 16:13:23;;;;;;;3.78;2.83;;;;;;;10.41;34.73;100206.50;8346574;28;20057;-72
2022/03/01 16:17:25;;;;;;;4.33;2.33;;;;;;;10.24;37.32;100208.06;8339172;28;20151;-72
2022/03/01 16:21:27;;;;;;;5.82;2.50;;;;;;;9.88;39.47;100208.53;8355789;28;20504;-72
2022/03/01 16:25:28;;;;;;;3.03;2.00;;;;;;;9.66;41.58;100204.78;8354979;28;20235;-72
2022/03/01 16:29:30;;;;;;;5.90;2.20;;;;;;;9.40;40.99;100204.47;8340980;28;20048;-72
2022/03/01 16:33:32;;;;;;;3.60;2.00;;;;;;;9.21;41.35;100212.81;8352461;28;20742;-72
2022/03/01 16:37:34;;;;;;;4.20;1.90;;;;;;;9.02;37.84;100204.78;8388406;28;20303;-72
2022/03/01 16:41:37;;;;;;;2.17;1.58;;;;;;;8.89;37.32;100205.44;8388163;28;20043;-71
2022/03/01 16:45:39;;;;;;;2.78;1.90;;;;;;;8.74;36.71;100206.06;8384463;28;20059;-72
2022/03/01 16:49:41;;;;;;;1.98;1.77;;;;;;;8.57;37.27;100201.47;8389218;28;20052;-72
2022/03/01 16:53:42;;;;;;;1.90;1.65;;;;;;;8.39;39.12;100189.94;8389094;28;20148;-72
2022/03/01 16:57:44;;;;;;;2.23;1.90;;;;;;;8.23;38.99;100193.06;8389274;28;20471;-71
2022/03/01 17:01:46;;;;;;;2.78;2.00;;;;;;;8.06;39.24;100190.19;8384311;28;20052;-72
2022/03/01 17:05:47;;;;;;;2.55;1.95;;;;;;;7.90;38.54;100193.34;8386557;28;20101;-71
2022/03/01 17:09:49;;;;;;;2.45;2.00;;;;;;;7.77;38.58;100192.22;8381890;28;20115;-71
2022/03/01 17:13:50;;;;;;;2.60;2.17;;;;;;;7.67;39.01;100192.00;8370700;28;20134;-71
2022/03/01 17:17:53;;;;;;;2.20;2.00;;;;;;;7.53;40.90;100200.34;8362565;28;20147;-71
2022/03/01 17:21:55;;;;;;;2.65;2.10;;;;;;;7.37;40.44;100193.16;8383049;28;20665;-71
2022/03/01 17:26:08;;;;;;;10.87;3.97;;;;;;;7.24;38.36;100210.06;8385347;28;20048;-71
2022/03/01 17:30:11;;;;;;;6.13;3.40;;;;;;;7.12;38.96;100214.09;8368567;28;20044;-71
2022/03/01 17:34:13;;;;;;;6.78;3.28;;;;;;;7.02;39.54;100222.47;8377815;28;20071;-71
2022/03/01 17:38:14;;;;;;;3.73;2.80;;;;;;;6.87;43.62;100220.41;8388881;28;20088;-71
2022/03/01 17:42:16;;;;;;;3.13;2.33;;;;;;;6.71;44.32;100213.13;8372880;28;20091;-71
2022/03/01 17:46:17;;;;;;;5.80;4.00;;;;;;;6.58;43.65;100225.72;8367581;28;20060;-71
2022/03/01 17:50:21;;;;;;;5.87;3.87;;;;;;;6.53;40.55;100222.16;8386768;28;20048;-71
2022/03/01 17:54:22;;;;;;;5.23;3.60;;;;;;;6.51;39.75;100229.00;8348401;28;20052;-71
2022/03/01 17:58:24;;;;;;;6.43;3.57;;;;;;;6.46;39.69;100237.44;8388846;28;20044;-71
2022/03/01 18:02:25;;;;;;;5.23;2.70;;;;;;;6.40;40.43;100251.03;8389256;28;20368;-72
2022/03/01 18:06:27;;;;;;;3.70;2.97;;;;;;;6.39;39.93;100246.72;8386510;28;20063;-71
2022/03/01 18:10:31;;;;;;;4.20;2.67;;;;;;;6.43;40.39;100248.53;8372888;28;20160;-71
2022/03/01 18:14:32;;;;;;;5.23;2.97;;;;;;;6.46;40.35;100245.16;8389490;28;20072;-72
2022/03/01 18:18:35;;;;;;;3.80;3.33;;;;;;;6.45;40.41;100246.88;8373585;28;20700;-71
2022/03/01 18:22:36;;;;;;;14.18;6.70;;;;;;;6.45;40.61;100240.84;8393556;28;20097;-71
2022/03/01 18:26:38;;;;;;;13.67;8.23;;;;;;;6.43;40.15;100242.50;8393578;28;20067;-72
2022/03/01 18:30:39;;;;;;;7.80;5.57;;;;;;;6.42;40.49;100244.22;8386440;28;20500;-71
2022/03/01 18:34:41;;;;;;;8.63;5.73;;;;;;;6.37;40.09;100235.50;8370345;28;20135;-72
2022/03/01 18:38:45;;;;;;;7.17;5.07;;;;;;;6.35;40.38;100234.59;8377013;28;20052;-72
2022/03/01 18:42:48;;;;;;;9.17;5.70;;;;;;;6.31;41.22;100236.22;8360528;28;20075;-72
2022/03/01 18:46:49;;;;;;;6.28;4.55;;;;;;;6.25;41.49;100245.47;8375271;28;20143;-73
2022/03/01 18:50:51;;;;;;;6.40;5.00;;;;;;;6.19;41.57;100243.63;8361535;28;20103;-71
2022/03/01 18:54:52;;;;;;;6.90;4.60;;;;;;;6.13;41.60;100251.19;8344784;28;20053;-71